KFLO/FLO METAR and TAF weather

Enter ICAO airport designator
Station Type Date Time Source
KFLO METAR 2024/06/14 02:53 UTC NOAA

KFLO 140253Z AUTO 11003KT 10SM CLR 24/17 A2998 RMK AO2 SLP151 T02390167 50003


Station Type Date Time Source
KFLO Decoded METAR 2024/06/14 02:53 UTC NOAA

FLORENCE REGIONAL AIRPORT, SC, United States (KFLO) 34-11N 079-44W 44M
Jun 13, 2024 - 10:53 PM EDT / 2024.06.14 0253 UTC
Wind: from the ESE (110 degrees) at 3 MPH (3 KT):0
Visibility: 10 mile(s):0
Sky conditions: clear
Temperature: 75.0 F (23.9 C)
Dew Point: 62.1 F (16.7 C)
Relative Humidity: 64%
Pressure (altimeter): 29.98 in. Hg (1015 hPa)
Pressure tendency: 0.01 inches (0.3 hPa) higher than three hours ago
ob: KFLO 140253Z AUTO 11003KT 10SM CLR 24/17 A2998 RMK AO2 SLP151 T02390167 50003
cycle: 3

Station Type Date Time Source
KFLO TAF 2024/06/13 18:22 UTC NOAA